createdAt,value
2022-09-23T00:16:55.555Z,57.00
2022-09-23T00:34:18.136Z,57.50
2022-09-23T00:44:44.901Z,73.70
2022-09-23T00:47:17.994Z,57.80
2022-09-23T00:49:51.001Z,57.80
2022-09-23T00:52:21.955Z,57.70
2022-09-23T00:59:50.538Z,58.10
2022-09-23T01:02:21.854Z,57.20
2022-09-23T01:04:52.753Z,57.50
2022-09-23T01:12:38.463Z,58.00
2022-09-23T01:15:14.079Z,58.30
2022-09-23T01:17:50.447Z,58.60
2022-09-23T01:20:56.466Z,77.30
2022-09-23T01:23:49.261Z,58.30
2022-09-23T01:26:38.784Z,58.20
2022-09-23T01:29:47.944Z,58.10
2022-09-23T01:32:23.721Z,58.10
2022-09-23T01:34:59.584Z,58.10
2022-09-23T01:37:36.170Z,57.80
2022-09-23T01:40:10.387Z,58.50
2022-09-23T01:42:42.483Z,58.10
2022-09-23T01:45:16.207Z,58.10
2022-09-23T01:47:51.353Z,58.00
2022-09-23T01:50:38.883Z,57.50
2022-09-23T01:53:14.159Z,59.50
2022-09-23T01:55:47.636Z,57.50
2022-09-23T01:58:20.382Z,57.20
2022-09-23T02:00:53.391Z,59.80
2022-09-23T02:03:26.945Z,76.60
2022-09-23T02:05:59.456Z,57.70
2022-09-23T02:08:33.083Z,57.70
2022-09-23T02:11:08.290Z,57.60
2022-09-23T02:13:43.320Z,57.70
2022-09-23T02:16:18.515Z,58.10
2022-09-23T02:18:53.108Z,58.50
2022-09-23T02:21:25.199Z,58.40
2022-09-23T02:23:59.659Z,58.20
2022-09-23T02:26:33.031Z,59.90
2022-09-23T02:29:09.011Z,59.20
2022-09-23T02:31:42.082Z,59.40
2022-09-23T02:34:22.050Z,59.40
2022-09-23T02:37:06.518Z,59.60
2022-09-23T02:39:42.986Z,58.90
2022-09-23T02:42:16.556Z,59.10
2022-09-23T02:49:43.438Z,59.60
2022-09-23T02:57:11.489Z,60.30
2022-09-23T03:02:51.231Z,60.00
2022-09-23T03:05:25.909Z,60.70
2022-09-23T03:08:12.796Z,60.40
2022-09-23T03:10:53.655Z,60.00
2022-09-23T03:13:31.788Z,60.80
2022-09-23T03:16:10.619Z,60.20
2022-09-23T03:18:42.763Z,60.30
2022-09-23T03:21:17.489Z,60.00
2022-09-23T03:23:47.822Z,60.30
2022-09-23T03:26:20.320Z,61.90
2022-09-23T03:28:50.328Z,60.50
2022-09-23T03:31:19.301Z,60.50
2022-09-23T03:33:59.987Z,60.20
2022-09-23T03:36:54.046Z,60.90
2022-09-23T03:39:30.997Z,61.00
2022-09-23T03:42:02.773Z,60.90
2022-09-23T03:49:34.491Z,61.00
2022-09-23T03:52:04.345Z,61.20
2022-09-23T03:57:03.289Z,61.30
2022-09-23T03:59:31.791Z,78.00
2022-09-23T04:02:01.947Z,60.90
2022-09-23T04:07:04.012Z,60.50
2022-09-23T04:16:58.874Z,60.10
2022-09-23T04:24:25.841Z,60.30
2022-09-23T04:26:55.057Z,60.20
2022-09-23T04:39:20.229Z,60.20
2022-09-23T04:41:49.706Z,60.30
2022-09-23T04:54:18.170Z,60.00
2022-09-23T04:59:16.882Z,60.60
2022-09-23T05:01:59.219Z,60.90
2022-09-23T05:14:27.049Z,61.40
2022-09-23T05:31:50.146Z,79.20
2022-09-23T05:39:18.720Z,80.00
2022-09-23T05:49:15.080Z,63.30
2022-09-23T06:02:10.482Z,64.70
2022-09-23T06:05:14.896Z,64.00
2022-09-23T06:07:54.398Z,65.40
2022-09-23T06:15:19.459Z,84.70
2022-09-23T06:17:50.601Z,64.40
2022-09-23T06:20:20.233Z,64.20
2022-09-23T06:27:56.457Z,64.50
2022-09-23T06:30:28.762Z,64.70
2022-09-23T06:32:58.595Z,64.80
2022-09-23T06:35:28.914Z,64.80
2022-09-23T06:42:59.473Z,65.10
2022-09-23T06:47:57.988Z,65.50
2022-09-23T06:50:29.115Z,65.70
2022-09-23T06:55:27.969Z,65.50
2022-09-23T07:00:26.356Z,65.70
2022-09-23T07:07:54.678Z,65.30
2022-09-23T07:20:17.991Z,82.40
2022-09-23T07:22:52.275Z,65.60
2022-09-23T07:25:23.045Z,66.00
2022-09-23T07:37:51.816Z,66.80
2022-09-23T07:40:21.546Z,66.40
2022-09-23T07:43:03.489Z,65.70
2022-09-23T07:48:01.881Z,65.10
2022-09-23T07:55:32.746Z,65.10
2022-09-23T08:13:00.126Z,64.40
2022-09-23T08:17:59.771Z,64.20
2022-09-23T08:23:18.657Z,63.40
2022-09-23T08:28:20.086Z,62.60
2022-09-23T08:30:50.319Z,62.50
2022-09-23T08:40:57.169Z,63.30
2022-09-23T08:43:29.234Z,61.90
2022-09-23T08:46:01.437Z,62.50
2022-09-23T08:48:32.125Z,62.50
2022-09-23T08:51:05.567Z,62.60
2022-09-23T08:53:36.596Z,62.80
2022-09-23T08:56:08.324Z,61.20
2022-09-23T08:58:57.579Z,61.30
2022-09-23T09:02:06.391Z,62.00
2022-09-23T09:04:44.614Z,60.60
2022-09-23T09:07:36.359Z,60.40
2022-09-23T09:10:11.767Z,61.30
2022-09-23T09:12:44.347Z,79.90
2022-09-23T09:15:17.421Z,61.10
2022-09-23T09:17:52.811Z,77.90
2022-09-23T09:20:24.620Z,62.10
2022-09-23T09:22:57.688Z,62.20
2022-09-23T09:25:47.945Z,60.00
2022-09-23T09:28:20.927Z,74.40
2022-09-23T09:30:56.768Z,73.00
2022-09-23T09:33:30.535Z,55.90
2022-09-23T09:36:08.895Z,68.80
2022-09-23T09:38:37.263Z,71.70
2022-09-23T09:41:14.311Z,55.20
2022-09-23T09:43:44.288Z,67.10
2022-09-23T09:47:18.214Z,65.90
2022-09-23T09:50:09.779Z,52.50
2022-09-23T09:52:53.873Z,53.40
2022-09-23T10:11:30.431Z,58.80
2022-09-23T10:30:43.275Z,45.50
2022-09-23T10:33:51.629Z,44.70
2022-09-23T10:40:48.184Z,45.20
2022-09-23T10:44:45.620Z,44.90
2022-09-23T10:54:59.933Z,41.50
2022-09-23T10:57:44.908Z,43.90
2022-09-23T11:00:23.324Z,40.20
2022-09-23T11:03:10.507Z,52.50
2022-09-23T11:05:48.727Z,41.80
2022-09-23T11:08:36.477Z,54.30
2022-09-23T11:11:22.471Z,41.10
2022-09-23T11:14:17.160Z,40.70
2022-09-23T11:17:14.963Z,39.40
2022-09-23T11:20:06.238Z,38.60
2022-09-23T11:22:53.105Z,38.60
2022-09-23T11:25:35.206Z,52.10
2022-09-23T11:28:32.753Z,38.60
2022-09-23T11:31:10.695Z,39.20
2022-09-23T11:33:57.488Z,38.00
2022-09-23T11:36:32.817Z,39.50
2022-09-23T11:39:10.104Z,36.50
2022-09-23T11:41:46.136Z,35.10
2022-09-23T11:44:34.684Z,35.00
2022-09-23T11:47:10.112Z,36.40
2022-09-23T11:49:47.627Z,35.40
2022-09-23T11:52:22.895Z,47.90
2022-09-23T11:54:58.032Z,34.00
2022-09-23T11:57:47.288Z,37.40
2022-09-23T12:00:25.398Z,32.80
2022-09-23T12:03:09.442Z,45.10
2022-09-23T12:05:41.013Z,35.20
2022-09-23T12:08:21.738Z,34.40
2022-09-23T12:10:54.526Z,34.20
2022-09-23T12:13:27.869Z,34.40
2022-09-23T12:16:14.970Z,34.60
2022-09-23T12:19:04.572Z,34.20
2022-09-23T12:21:59.326Z,35.30
2022-09-23T12:24:48.346Z,47.90
2022-09-23T12:27:33.365Z,37.60
2022-09-23T12:30:22.463Z,36.20
2022-09-23T12:33:21.626Z,36.20
2022-09-23T12:38:26.936Z,51.50
2022-09-23T12:40:57.257Z,48.40
2022-09-23T12:46:45.010Z,37.50
2022-09-23T12:49:26.341Z,36.50
2022-09-23T12:52:14.013Z,37.30
2022-09-23T12:55:32.029Z,38.00
2022-09-23T12:58:36.360Z,48.80
2022-09-23T13:01:09.422Z,47.40
2022-09-23T13:04:10.914Z,47.60
2022-09-23T13:06:43.582Z,37.90
2022-09-23T13:09:16.452Z,46.80
2022-09-23T13:11:48.018Z,48.10
2022-09-23T13:14:25.291Z,49.60
2022-09-23T13:16:57.179Z,48.30
2022-09-23T13:19:46.417Z,38.60
2022-09-23T13:22:43.900Z,37.10
2022-09-23T13:25:20.893Z,49.60
2022-09-23T13:27:53.643Z,38.40
2022-09-23T13:30:26.401Z,52.80
2022-09-23T13:33:05.135Z,48.50
2022-09-23T13:35:36.709Z,50.70
2022-09-23T13:38:13.200Z,49.30
2022-09-23T13:43:24.484Z,49.80
2022-09-23T13:48:24.726Z,37.40
2022-09-23T13:50:54.643Z,48.60
2022-09-23T13:53:27.637Z,38.50
2022-09-23T13:56:04.633Z,49.40
2022-09-23T13:58:33.987Z,49.70
2022-09-23T14:03:37.132Z,37.20
2022-09-23T14:06:08.664Z,38.50
2022-09-23T14:08:40.834Z,49.10
2022-09-23T14:13:43.168Z,50.20
2022-09-23T14:16:14.789Z,38.70
2022-09-23T14:18:46.693Z,39.40
2022-09-23T14:21:29.048Z,39.60
2022-09-23T14:24:06.209Z,51.40
2022-09-23T14:29:03.303Z,50.60
2022-09-23T14:31:32.954Z,49.50
2022-09-23T14:34:01.054Z,50.50
2022-09-23T14:36:46.583Z,50.30
2022-09-23T14:39:17.501Z,39.40
2022-09-23T14:41:47.202Z,39.50
2022-09-23T14:44:22.801Z,39.80
2022-09-23T14:46:57.460Z,39.20
2022-09-23T14:49:28.636Z,39.70
2022-09-23T14:52:00.629Z,51.10
2022-09-23T14:54:35.675Z,38.90
2022-09-23T14:57:19.271Z,38.70
2022-09-23T14:59:53.756Z,38.40
2022-09-23T15:02:35.622Z,38.40
2022-09-23T15:05:40.314Z,38.90
2022-09-23T15:10:41.080Z,39.80
2022-09-23T15:13:13.824Z,39.90
2022-09-23T15:15:42.998Z,51.30
2022-09-23T15:18:18.456Z,40.30
2022-09-23T15:20:52.350Z,40.70
2022-09-23T15:23:34.914Z,40.90
2022-09-23T15:26:07.429Z,40.50
2022-09-23T15:28:35.636Z,51.40
2022-09-23T15:36:05.292Z,52.00
2022-09-23T15:43:33.525Z,40.40
2022-09-23T15:46:07.693Z,40.80
2022-09-23T15:48:40.193Z,41.00
2022-09-23T15:51:15.607Z,40.90
2022-09-23T15:58:42.852Z,41.20
2022-09-23T16:01:49.869Z,42.10
2022-09-23T16:07:39.778Z,42.00
2022-09-23T16:10:08.964Z,53.60
2022-09-23T16:12:58.344Z,43.10
2022-09-23T16:15:30.821Z,42.70
2022-09-23T16:22:36.090Z,43.20
2022-09-23T16:27:35.246Z,43.60
2022-09-23T16:30:09.062Z,43.60
2022-09-23T16:32:39.099Z,43.60
2022-09-23T16:35:08.729Z,46.00
2022-09-23T16:38:13.713Z,44.50
2022-09-23T16:40:46.883Z,56.20
2022-09-23T16:43:15.379Z,56.00
2022-09-23T16:45:43.759Z,56.60
2022-09-23T16:48:13.824Z,44.70
2022-09-23T17:03:43.772Z,45.30
2022-09-23T17:11:12.086Z,46.20
2022-09-23T17:16:12.046Z,46.70
2022-09-23T17:18:41.584Z,46.40
2022-09-23T17:21:10.405Z,59.00
2022-09-23T17:23:58.027Z,47.80
2022-09-23T17:26:28.230Z,46.90
2022-09-23T17:29:30.622Z,47.50
2022-09-23T17:34:33.510Z,47.70
2022-09-23T17:49:35.415Z,49.10
2022-09-23T18:04:34.083Z,50.50
2022-09-23T18:14:30.060Z,64.10
2022-09-23T18:22:01.513Z,51.80
2022-09-23T18:24:33.615Z,64.40
2022-09-23T18:27:10.145Z,51.90
2022-09-23T18:34:47.403Z,52.80
2022-09-23T18:37:18.952Z,52.00
2022-09-23T18:50:28.778Z,56.10
2022-09-23T18:53:01.151Z,52.50
2022-09-23T18:55:35.696Z,53.50
2022-09-23T19:00:41.527Z,54.70
2022-09-23T19:08:10.826Z,53.60
2022-09-23T19:13:10.902Z,67.70
2022-09-23T19:18:29.243Z,67.10
2022-09-23T19:23:38.756Z,53.30
2022-09-23T19:26:14.547Z,53.30
2022-09-23T19:36:12.133Z,54.00
2022-09-23T19:38:41.656Z,54.10
2022-09-23T19:56:17.893Z,69.50
2022-09-23T19:58:47.373Z,57.70
2022-09-23T20:01:16.929Z,55.50
2022-09-23T20:03:49.240Z,55.80
2022-09-23T20:06:19.035Z,55.90
2022-09-23T20:08:48.189Z,56.00
2022-09-23T20:11:28.194Z,55.90
2022-09-23T20:14:09.513Z,56.20
2022-09-23T20:26:55.002Z,58.00
2022-09-23T20:34:24.802Z,58.10
2022-09-23T20:41:52.960Z,57.10
2022-09-23T20:51:49.499Z,57.00
2022-09-23T20:56:51.976Z,56.50
2022-09-23T20:59:28.594Z,56.60
2022-09-23T21:09:28.294Z,57.30
2022-09-23T21:12:01.272Z,57.20
2022-09-23T21:27:15.237Z,57.10
2022-09-23T21:40:43.615Z,71.20
2022-09-23T21:43:13.382Z,57.50
2022-09-23T21:45:41.917Z,71.40
2022-09-23T21:53:10.270Z,71.60
2022-09-23T22:00:40.550Z,57.40
2022-09-23T22:05:38.016Z,74.50
2022-09-23T22:10:38.468Z,71.30
2022-09-23T22:15:43.002Z,57.30
2022-09-23T22:18:36.152Z,57.50
2022-09-23T22:28:50.894Z,57.70
2022-09-23T22:31:37.980Z,57.90
2022-09-23T22:36:35.042Z,58.00
2022-09-23T22:44:03.730Z,72.40
2022-09-23T22:46:34.627Z,57.80
2022-09-23T22:49:04.037Z,58.00
2022-09-23T23:01:26.085Z,72.60
2022-09-23T23:03:56.688Z,58.20
2022-09-23T23:21:23.564Z,59.00
2022-09-23T23:23:53.784Z,59.10
2022-09-23T23:26:23.377Z,74.10
2022-09-23T23:28:52.389Z,59.60
2022-09-23T23:31:22.755Z,59.20
2022-09-23T23:36:20.915Z,59.20
2022-09-23T23:38:52.479Z,59.20
2022-09-23T23:41:23.038Z,66.30
2022-09-23T23:43:55.849Z,59.40
2022-09-23T23:46:25.347Z,76.60
2022-09-23T23:51:22.947Z,76.50
2022-09-23T23:53:53.231Z,59.90
2022-09-23T23:56:25.012Z,59.90
2022-09-23T23:58:55.329Z,68.00
